Time;durP1;ratioP1;P1;durP2;ratioP2;P2;SDS_P1;SDS_P2;PMS_P1;PMS_P2;Temp;Humidity;BMP_temperature;BMP_pressure;BME280_temperature;BME280_humidity;BME280_pressure;Samples;Min_cycle;Max_cycle;Signal;HPM_P1;HPM_P2
2023/01/05 00:01:13;;;;;;;34.03;22.00;;;26.00;99.90;;;;;;4995804;28;20018;-69
2023/01/05 00:03:40;;;;;;;33.38;20.30;;;26.00;99.90;;;;;;4995746;28;20023;-70
2023/01/05 00:06:11;;;;;;;29.35;20.55;;;26.00;99.90;;;;;;4995604;28;20104;-68
2023/01/05 00:08:39;;;;;;;50.80;22.60;;;26.00;99.90;;;;;;4993885;28;20105;-68
2023/01/05 00:22:30;;;;;;;28.55;19.90;;;26.20;99.90;;;;;;4995832;28;20037;-73
2023/01/05 00:25:02;;;;;;;33.47;19.35;;;26.20;99.90;;;;;;4992698;28;20023;-74
2023/01/05 00:27:30;;;;;;;33.78;19.73;;;26.20;99.90;;;;;;4995307;28;20490;-69
2023/01/05 00:29:56;;;;;;;26.58;18.65;;;26.30;99.90;;;;;;4995249;28;20022;-69
2023/01/05 00:32:23;;;;;;;48.28;28.85;;;26.30;99.90;;;;;;4995500;28;20018;-70
2023/01/05 00:34:54;;;;;;;32.10;20.38;;;26.20;99.90;;;;;;4995240;28;20028;-70
2023/01/05 00:37:23;;;;;;;34.60;19.50;;;;;;;;;;4995174;28;20546;-66
2023/01/05 00:39:50;;;;;;;36.25;22.00;;;26.50;99.90;;;;;;4994791;28;20070;-66
2023/01/05 00:42:18;;;;;;;29.77;20.92;;;26.50;99.90;;;;;;4995149;28;20030;-66
2023/01/05 00:44:44;;;;;;;31.75;19.83;;;26.30;99.90;;;;;;4995196;28;20026;-66
2023/01/05 00:47:11;;;;;;;27.08;20.02;;;26.50;99.90;;;;;;4995115;28;20452;-66
2023/01/05 00:49:38;;;;;;;33.20;21.67;;;26.20;99.90;;;;;;4995188;28;20024;-66
2023/01/05 00:52:05;;;;;;;36.15;21.55;;;26.40;99.90;;;;;;4995882;28;20450;-67
2023/01/05 00:54:32;;;;;;;28.65;20.52;;;26.20;99.90;;;;;;4995042;28;20052;-66
2023/01/05 00:56:59;;;;;;;36.88;20.95;;;26.60;99.90;;;;;;4994971;28;20029;-65
2023/01/05 00:59:26;;;;;;;30.80;20.30;;;26.60;99.90;;;;;;4993232;28;20080;-67
2023/01/05 01:01:55;;;;;;;33.80;21.88;;;26.40;99.90;;;;;;4995159;28;20026;-66
2023/01/05 01:04:22;;;;;;;32.00;20.27;;;26.50;99.90;;;;;;5018634;23;20081;-66
2023/01/05 01:06:49;;;;;;;34.38;20.73;;;26.40;99.90;;;;;;5005633;28;20026;-67
2023/01/05 01:09:16;;;;;;;30.90;20.55;;;26.70;99.90;;;;;;5004343;28;20055;-66
2023/01/05 01:11:43;;;;;;;32.05;21.10;;;26.40;99.90;;;;;;5003457;28;20081;-67
2023/01/05 01:14:11;;;;;;;32.85;20.05;;;26.50;99.90;;;;;;5005086;28;20096;-66
2023/01/05 01:16:39;;;;;;;33.75;21.23;;;26.50;99.90;;;;;;5004406;28;20444;-67
2023/01/05 01:19:05;;;;;;;30.95;22.83;;;26.40;99.90;;;;;;5003089;28;20062;-66
2023/01/05 01:21:32;;;;;;;32.05;21.98;;;26.60;99.90;;;;;;5004798;28;20025;-66
2023/01/05 01:23:59;;;;;;;30.00;21.52;;;26.90;99.90;;;;;;5004281;28;20395;-66
2023/01/05 01:26:25;;;;;;;33.85;21.55;;;26.90;99.90;;;;;;5003030;28;20034;-67
2023/01/05 01:28:52;;;;;;;49.45;36.90;;;26.90;99.90;;;;;;5004501;28;20018;-66
2023/01/05 01:31:18;;;;;;;35.63;23.90;;;27.00;99.90;;;;;;4999872;28;20027;-66
2023/01/05 01:33:45;;;;;;;35.75;22.77;;;26.80;99.90;;;;;;5005015;28;20022;-66
2023/01/05 01:36:11;;;;;;;31.52;22.42;;;27.10;99.90;;;;;;5003212;28;20042;-67
2023/01/05 01:38:38;;;;;;;31.58;21.50;;;27.10;99.90;;;;;;5003737;28;20537;-67
2023/01/05 01:41:05;;;;;;;39.97;23.13;;;27.00;99.90;;;;;;5004887;28;20387;-66
2023/01/05 01:43:45;;;;;;;31.63;22.10;;;27.00;99.90;;;;;;5000372;28;20026;-64
2023/01/05 01:46:14;;;;;;;29.60;20.95;;;26.80;99.90;;;;;;5000579;28;20069;-66
2023/01/05 01:49:01;;;;;;;41.13;26.85;;;27.10;99.90;;;;;;5003479;28;20025;-66
2023/01/05 01:51:35;;;;;;;36.95;25.60;;;27.10;99.90;;;;;;5004468;28;20025;-66
2023/01/05 01:54:06;;;;;;;32.65;21.65;;;26.90;99.90;;;;;;5003614;28;20014;-65
2023/01/05 01:56:38;;;;;;;36.75;21.42;;;27.40;99.90;;;;;;4999974;28;20018;-67
2023/01/05 01:59:05;;;;;;;29.63;19.75;;;27.00;99.90;;;;;;5003168;28;20530;-66
2023/01/05 02:01:33;;;;;;;38.10;22.83;;;27.10;99.90;;;;;;5000456;28;20032;-65
2023/01/05 02:04:00;;;;;;;30.20;19.92;;;27.10;99.90;;;;;;5003714;28;20041;-66
2023/01/05 02:06:27;;;;;;;27.52;19.27;;;27.10;99.90;;;;;;5004321;28;20109;-66
2023/01/05 02:08:54;;;;;;;31.52;20.38;;;27.10;99.90;;;;;;5002566;28;20022;-65
2023/01/05 02:11:44;;;;;;;35.47;21.52;;;27.20;99.90;;;;;;5003440;28;20061;-66
2023/01/05 02:14:26;;;;;;;30.00;20.92;;;27.20;99.90;;;;;;5003803;28;20060;-65
2023/01/05 02:17:02;;;;;;;34.25;22.10;;;27.70;99.90;;;;;;5004233;28;20379;-66
2023/01/05 02:19:33;;;;;;;29.83;20.70;;;27.70;99.90;;;;;;5003895;28;20041;-66
2023/01/05 02:22:23;;;;;;;29.80;22.65;;;27.70;99.90;;;;;;4999463;28;20057;-66
2023/01/05 02:24:49;;;;;;;32.33;23.02;;;27.70;99.90;;;;;;4994127;28;20031;-67
2023/01/05 02:27:42;;;;;;;30.42;21.67;;;27.80;99.90;;;;;;4994344;28;20026;-67
2023/01/05 02:30:08;;;;;;;;;;;27.80;99.90;;;;;;4995523;28;20032;-67
2023/01/05 02:32:46;;;;;;;34.50;23.10;;;27.60;99.90;;;;;;4991120;28;19910;-67
2023/01/05 02:35:35;;;;;;;32.53;21.52;;;27.60;99.90;;;;;;4983806;28;20077;-66
2023/01/05 02:38:05;;;;;;;34.97;22.85;;;27.60;99.90;;;;;;4978068;28;20053;-66
2023/01/05 02:40:40;;;;;;;42.35;22.35;;;27.90;99.90;;;;;;5002976;28;20072;-66
2023/01/05 02:43:09;;;;;;;36.63;22.27;;;27.90;99.90;;;;;;4999727;28;20085;-65
2023/01/05 02:45:36;;;;;;;32.78;22.15;;;27.80;99.90;;;;;;5002054;28;20064;-64
2023/01/05 02:48:03;;;;;;;34.28;23.42;;;27.90;99.90;;;;;;4999016;28;20037;-68
2023/01/05 02:50:44;;;;;;;31.88;21.40;;;27.90;99.90;;;;;;4994020;28;20027;-65
2023/01/05 02:53:26;;;;;;;35.85;23.33;;;28.00;99.90;;;;;;4993950;28;20031;-66
2023/01/05 02:56:17;;;;;;;34.60;23.48;;;27.80;99.90;;;;;;4993786;28;20033;-65
2023/01/05 02:58:53;;;;;;;43.67;23.65;;;28.00;99.90;;;;;;4993732;28;20069;-67
2023/01/05 03:01:22;;;;;;;53.65;32.40;;;28.10;99.90;;;;;;4993821;28;20038;-69
2023/01/05 03:03:57;;;;;;;34.15;24.63;;;28.10;99.90;;;;;;4995112;28;20033;-65
2023/01/05 03:06:35;;;;;;;35.55;23.02;;;28.10;99.90;;;;;;4997550;28;20023;-67
2023/01/05 03:09:04;;;;;;;36.45;22.42;;;28.40;99.90;;;;;;4997572;28;20391;-66
2023/01/05 03:14:36;;;;;;;34.08;24.08;;;28.30;99.90;;;;;;4997628;28;20113;-67
2023/01/05 03:17:07;;;;;;;35.35;22.20;;;28.30;99.90;;;;;;4991334;28;20030;-64
2023/01/05 03:19:35;;;;;;;33.40;22.47;;;28.40;99.90;;;;;;4979573;28;20031;-66
2023/01/05 03:37:16;;;;;;;37.53;22.48;;;29.00;99.90;;;;;;4862691;29;20041;-67
2023/01/05 03:39:46;;;;;;;31.30;20.48;;;28.90;99.90;;;;;;4862399;29;20038;-64
2023/01/05 03:42:14;;;;;;;34.22;22.02;;;29.20;99.90;;;;;;4862191;29;20037;-65
2023/01/05 03:44:45;;;;;;;29.80;21.25;;;29.20;99.90;;;;;;4861911;29;20439;-66
2023/01/05 03:47:12;;;;;;;26.58;18.55;;;29.10;99.90;;;;;;4856433;29;20083;-66
2023/01/05 03:49:38;;;;;;;37.28;19.63;;;29.20;99.90;;;;;;4852139;29;20125;-66
2023/01/05 03:52:05;;;;;;;27.38;17.83;;;29.10;99.90;;;;;;4850743;29;20030;-66
2023/01/05 03:54:31;;;;;;;35.40;21.08;;;29.20;99.90;;;;;;4850904;29;20061;-66
2023/01/05 03:56:58;;;;;;;33.80;21.10;;;29.30;99.90;;;;;;4851915;29;20045;-66
2023/01/05 03:59:24;;;;;;;31.33;18.60;;;29.10;99.90;;;;;;4858687;29;20067;-66
2023/01/05 04:01:51;;;;;;;34.47;17.10;;;29.20;99.90;;;;;;4840816;29;20042;-66
2023/01/05 04:04:17;;;;;;;29.08;16.65;;;29.30;99.90;;;;;;4825963;29;20333;-67
2023/01/05 04:06:44;;;;;;;27.88;15.82;;;29.20;99.90;;;;;;4870840;29;20066;-64
2023/01/05 04:09:10;;;;;;;25.17;15.23;;;29.40;99.90;;;;;;4850925;29;20030;-64
2023/01/05 04:11:37;;;;;;;26.02;14.73;;;29.30;99.90;;;;;;4863632;29;20038;-64
2023/01/05 04:14:03;;;;;;;30.90;14.57;;;29.30;99.90;;;;;;4915860;28;20113;-65
2023/01/05 04:16:30;;;;;;;19.92;14.68;;;29.30;99.90;;;;;;4963782;28;20162;-64
2023/01/05 04:18:56;;;;;;;22.13;14.10;;;29.30;99.90;;;;;;4962902;28;20035;-65
2023/01/05 04:21:23;;;;;;;20.85;12.60;;;29.30;99.90;;;;;;4964668;28;20388;-65
2023/01/05 04:23:49;;;;;;;20.73;13.05;;;29.30;99.90;;;;;;4989495;28;20042;-64
2023/01/05 04:26:16;;;;;;;18.33;12.20;;;29.40;99.90;;;;;;5001692;28;20117;-64
2023/01/05 04:28:42;;;;;;;19.65;12.32;;;29.40;99.90;;;;;;4997082;28;20500;-70
2023/01/05 04:31:09;;;;;;;29.85;16.88;;;29.40;99.90;;;;;;5006057;28;20133;-72
2023/01/05 04:33:38;;;;;;;27.13;19.15;;;29.40;99.90;;;;;;5005385;28;20010;-74
2023/01/05 04:36:06;;;;;;;25.75;16.27;;;29.40;99.90;;;;;;5006448;28;20017;-74
2023/01/05 04:38:32;;;;;;;21.17;13.02;;;29.50;99.90;;;;;;5005820;28;20025;-72
2023/01/05 04:40:59;;;;;;;19.80;12.70;;;29.50;99.90;;;;;;5004412;28;20023;-71
2023/01/05 04:43:25;;;;;;;22.35;14.10;;;29.40;99.90;;;;;;5003901;28;20029;-77
2023/01/05 04:45:52;;;;;;;23.52;15.63;;;29.50;99.90;;;;;;5004220;28;20045;-71
2023/01/05 04:48:18;;;;;;;29.15;16.80;;;29.50;99.90;;;;;;5005365;28;20062;-74
2023/01/05 04:50:50;;;;;;;26.08;14.18;;;29.60;99.90;;;;;;5004490;28;20034;-74
2023/01/05 04:53:16;;;;;;;;;;;29.60;99.90;;;;;;4998573;28;20027;-73
2023/01/05 04:55:44;;;;;;;28.58;17.35;;;29.60;99.90;;;;;;5005762;28;19968;-73
2023/01/05 04:58:11;;;;;;;26.23;15.15;;;29.70;99.90;;;;;;5001557;28;20018;-71
2023/01/05 05:00:38;;;;;;;32.20;17.60;;;29.70;99.90;;;;;;5003936;28;20022;-72
2023/01/05 05:03:04;;;;;;;23.50;15.60;;;29.70;99.90;;;;;;5003455;28;20458;-72
2023/01/05 05:05:31;;;;;;;24.25;15.27;;;29.70;99.90;;;;;;5004958;28;20046;-72
2023/01/05 05:07:57;;;;;;;25.52;13.75;;;29.80;99.90;;;;;;5004632;28;20045;-71
2023/01/05 05:10:24;;;;;;;22.90;14.52;;;29.80;99.90;;;;;;5005756;28;20019;-71
2023/01/05 05:12:51;;;;;;;18.63;11.75;;;29.90;99.90;;;;;;5003928;28;20018;-66
2023/01/05 05:15:18;;;;;;;21.63;11.07;;;29.90;99.90;;;;;;5015682;28;20030;-66
2023/01/05 05:17:44;;;;;;;21.27;11.18;;;29.90;99.90;;;;;;5015957;28;20022;-66
2023/01/05 05:20:11;;;;;;;23.48;13.82;;;29.90;99.90;;;;;;5015785;28;20052;-66
2023/01/05 05:22:37;;;;;;;20.80;12.50;;;30.00;99.90;;;;;;5012122;28;20482;-67
2023/01/05 05:25:04;;;;;;;16.23;11.35;;;30.10;99.90;;;;;;5003788;28;20072;-67
2023/01/05 05:27:31;;;;;;;17.33;11.25;;;30.10;99.90;;;;;;4999788;28;20073;-67
2023/01/05 05:29:57;;;;;;;15.98;11.77;;;30.20;99.90;;;;;;5004118;28;20966;-67
2023/01/05 05:32:24;;;;;;;23.00;11.52;;;30.20;99.90;;;;;;5002324;28;20019;-67
2023/01/05 05:34:50;;;;;;;17.00;11.65;;;30.20;99.90;;;;;;4993033;28;20031;-66
2023/01/05 05:37:17;;;;;;;15.98;11.55;;;30.20;99.90;;;;;;4991409;28;20407;-67
2023/01/05 05:39:43;;;;;;;19.85;12.85;;;30.20;99.90;;;;;;4995138;28;20221;-67
2023/01/05 05:42:10;;;;;;;21.08;11.77;;;30.20;99.90;;;;;;4998620;28;20037;-68
2023/01/05 05:44:36;;;;;;;20.65;11.35;;;30.20;99.90;;;;;;4993735;28;20038;-66
2023/01/05 05:47:03;;;;;;;15.43;10.35;;;30.40;99.90;;;;;;5002670;28;20125;-69
2023/01/05 05:49:29;;;;;;;17.00;11.00;;;30.40;99.90;;;;;;5004053;28;20025;-69
2023/01/05 05:51:56;;;;;;;20.08;11.68;;;30.40;99.90;;;;;;5004028;28;20025;-67
2023/01/05 05:54:22;;;;;;;21.33;12.40;;;30.50;99.90;;;;;;5002781;28;20080;-65
2023/01/05 05:56:49;;;;;;;16.30;11.98;;;30.60;99.90;;;;;;5001749;28;20025;-67
2023/01/05 05:59:15;;;;;;;24.10;11.93;;;30.50;99.90;;;;;;4994290;28;20037;-65
2023/01/05 06:01:42;;;;;;;18.90;10.05;;;30.60;99.90;;;;;;4994428;28;20057;-68
2023/01/05 06:04:10;;;;;;;16.70;10.73;;;30.60;99.90;;;;;;4994091;28;20101;-66
2023/01/05 06:06:37;;;;;;;16.13;10.98;;;30.60;99.90;;;;;;4999273;28;20046;-66
2023/01/05 06:09:04;;;;;;;17.90;10.48;;;30.70;99.90;;;;;;5005682;28;20037;-64
2023/01/05 06:11:30;;;;;;;21.33;10.65;;;30.70;99.90;;;;;;4999881;28;20492;-67
2023/01/05 06:13:57;;;;;;;16.17;9.75;;;30.80;99.90;;;;;;5003290;28;20017;-66
2023/01/05 06:16:23;;;;;;;15.05;10.10;;;30.80;99.90;;;;;;5003543;28;20088;-66
2023/01/05 06:18:50;;;;;;;21.45;9.90;;;30.80;99.90;;;;;;5002927;28;20026;-65
2023/01/05 06:21:16;;;;;;;18.55;9.43;;;30.80;99.90;;;;;;5000899;28;20028;-65
2023/01/05 06:23:43;;;;;;;15.23;9.75;;;30.90;99.90;;;;;;4998585;28;20061;-64
2023/01/05 06:26:09;;;;;;;16.87;10.87;;;31.00;99.90;;;;;;5000800;28;20521;-65
2023/01/05 06:28:36;;;;;;;19.42;10.98;;;31.00;99.90;;;;;;5002622;28;20026;-65
2023/01/05 06:31:02;;;;;;;22.00;10.88;;;31.00;99.90;;;;;;5000802;28;20218;-66
2023/01/05 06:33:29;;;;;;;14.63;8.63;;;31.10;99.90;;;;;;5001082;28;20019;-65
2023/01/05 06:35:57;;;;;;;13.63;8.00;;;31.10;99.90;;;;;;4998701;28;20023;-66
2023/01/05 06:38:25;;;;;;;11.93;8.48;;;31.10;99.90;;;;;;4996819;28;20037;-65
2023/01/05 06:40:53;;;;;;;13.88;8.40;;;31.20;99.90;;;;;;4999165;28;20034;-66
2023/01/05 06:43:20;;;;;;;15.95;8.65;;;31.20;99.90;;;;;;4998616;28;20018;-66
2023/01/05 06:45:46;;;;;;;14.27;8.82;;;31.20;99.90;;;;;;5001854;28;20034;-66
2023/01/05 06:48:13;;;;;;;15.40;9.80;;;31.10;99.90;;;;;;5003147;28;20077;-66
2023/01/05 06:50:39;;;;;;;16.35;9.00;;;31.20;99.90;;;;;;4999006;28;20022;-66
2023/01/05 06:53:06;;;;;;;21.15;10.55;;;31.10;99.90;;;;;;5001912;28;20475;-66
2023/01/05 06:55:32;;;;;;;17.05;9.98;;;31.20;99.90;;;;;;5003143;28;20034;-66
2023/01/05 06:57:59;;;;;;;18.55;10.88;;;31.30;99.90;;;;;;5002011;28;20570;-66
2023/01/05 07:00:26;;;;;;;19.98;9.32;;;31.30;99.90;;;;;;5008197;28;20021;-66
2023/01/05 07:02:52;;;;;;;13.18;8.20;;;31.30;99.90;;;;;;5002445;28;20029;-66
2023/01/05 07:05:19;;;;;;;12.88;8.43;;;31.30;99.90;;;;;;5000769;28;20056;-66
2023/01/05 07:07:45;;;;;;;14.63;9.05;;;31.30;99.90;;;;;;4995875;28;20031;-67
2023/01/05 07:10:12;;;;;;;17.88;10.10;;;31.40;99.90;;;;;;4981855;28;20388;-66
2023/01/05 07:12:38;;;;;;;16.75;10.05;;;31.50;99.90;;;;;;4989371;28;20022;-69
2023/01/05 07:15:05;;;;;;;17.45;10.35;;;31.50;99.90;;;;;;4993647;28;20026;-67
2023/01/05 07:17:32;;;;;;;22.05;11.98;;;31.50;99.90;;;;;;4994245;28;20026;-67
2023/01/05 07:19:59;;;;;;;14.13;9.85;;;31.50;99.90;;;;;;4993172;28;20026;-67
2023/01/05 07:22:27;;;;;;;21.33;11.60;;;31.50;99.90;;;;;;4993264;28;20030;-65
2023/01/05 07:24:53;;;;;;;21.20;11.88;;;31.50;99.90;;;;;;4993319;28;20526;-67
2023/01/05 07:27:20;;;;;;;20.23;11.15;;;31.50;99.90;;;;;;4993324;28;20038;-67
2023/01/05 07:29:46;;;;;;;18.95;11.13;;;31.50;99.90;;;;;;4993276;28;20098;-66
2023/01/05 07:32:13;;;;;;;23.95;12.07;;;31.50;99.90;;;;;;4993331;28;20031;-66
2023/01/05 07:34:39;;;;;;;27.90;15.77;;;31.50;99.90;;;;;;4993307;28;20022;-67
2023/01/05 07:37:06;;;;;;;21.58;13.55;;;31.50;99.90;;;;;;4993277;28;20427;-67
2023/01/05 07:39:32;;;;;;;35.78;21.67;;;31.50;99.90;;;;;;4987286;28;20102;-66
2023/01/05 07:41:59;;;;;;;38.03;19.63;;;31.50;99.90;;;;;;5006585;28;20038;-67
2023/01/05 07:44:25;;;;;;;24.23;14.35;;;31.40;99.90;;;;;;5013037;28;20033;-66
2023/01/05 07:46:52;;;;;;;24.77;12.82;;;31.50;99.90;;;;;;5012907;28;20076;-68
2023/01/05 07:49:19;;;;;;;18.90;11.63;;;31.40;99.90;;;;;;5013033;28;20040;-67
2023/01/05 07:51:45;;;;;;;18.00;11.13;;;31.40;99.90;;;;;;5015734;28;20026;-65
2023/01/05 07:54:12;;;;;;;19.85;11.02;;;31.40;99.90;;;;;;5016476;28;20025;-66
2023/01/05 07:56:39;;;;;;;25.52;11.80;;;31.50;99.90;;;;;;5016461;28;20057;-67
2023/01/05 07:59:05;;;;;;;16.35;9.75;;;31.50;99.90;;;;;;5016262;28;20026;-67
2023/01/05 08:01:31;;;;;;;15.13;10.70;;;31.50;99.90;;;;;;5016476;28;20494;-68
2023/01/05 08:03:58;;;;;;;17.20;10.45;;;31.60;99.90;;;;;;5016845;28;20495;-66
2023/01/05 08:06:24;;;;;;;19.40;11.50;;;31.70;99.90;;;;;;5016527;28;20046;-69
2023/01/05 08:08:51;;;;;;;26.88;10.98;;;31.80;99.90;;;;;;5016471;28;20026;-67
2023/01/05 08:11:20;;;;;;;16.33;11.10;;;31.90;99.90;;;;;;4998836;28;20590;-66
2023/01/05 08:13:58;;;;;;;16.00;10.25;;;31.90;99.90;;;;;;4982451;28;20058;-68
2023/01/05 08:16:26;;;;;;;14.43;9.35;;;32.00;99.90;;;;;;4977188;28;20030;-67
2023/01/05 08:18:53;;;;;;;17.80;11.60;;;32.00;99.90;;;;;;4977145;28;20031;-66
2023/01/05 08:21:19;;;;;;;24.10;12.93;;;32.00;99.90;;;;;;4977058;28;20361;-64
2023/01/05 08:23:46;;;;;;;18.23;11.10;;;32.00;99.90;;;;;;4977497;28;20051;-67
2023/01/05 08:26:15;;;;;;;40.22;15.07;;;32.00;99.90;;;;;;4977378;28;20604;-65
2023/01/05 08:28:42;;;;;;;16.75;10.02;;;32.00;99.90;;;;;;4976976;28;20035;-64
2023/01/05 08:31:15;;;;;;;14.45;9.35;;;32.00;99.90;;;;;;4977259;28;20023;-67
2023/01/05 08:33:42;;;;;;;15.57;9.98;;;31.90;99.90;;;;;;4981894;28;20687;-66
2023/01/05 08:36:11;;;;;;;17.65;9.93;;;32.00;99.90;;;;;;5009854;28;20062;-67
2023/01/05 08:38:46;;;;;;;20.17;9.95;;;32.00;99.90;;;;;;5015904;28;20395;-66
2023/01/05 08:41:17;;;;;;;19.75;9.27;;;32.00;99.90;;;;;;5015855;28;20088;-64
2023/01/05 08:43:48;;;;;;;31.95;11.32;;;32.00;99.90;;;;;;5015883;28;20030;-65
2023/01/05 08:46:14;;;;;;;22.75;11.13;;;32.10;99.90;;;;;;5015539;28;20113;-64
2023/01/05 08:48:40;;;;;;;22.60;10.68;;;32.00;99.90;;;;;;5016300;28;20022;-65
2023/01/05 08:51:07;;;;;;;14.68;9.65;;;32.00;99.90;;;;;;5015049;28;20503;-64
2023/01/05 08:53:34;;;;;;;20.92;10.90;;;32.00;99.90;;;;;;4986709;28;20426;-66
2023/01/05 08:56:01;;;;;;;21.20;12.32;;;32.00;99.90;;;;;;5002981;28;20112;-67
2023/01/05 08:58:28;;;;;;;20.63;11.98;;;32.00;99.90;;;;;;5004207;28;20036;-66
2023/01/05 09:00:54;;;;;;;15.80;9.77;;;32.00;99.90;;;;;;5011289;28;20034;-66
2023/01/05 09:03:21;;;;;;;30.00;13.88;;;31.90;99.90;;;;;;5015168;28;20054;-65
2023/01/05 09:05:47;;;;;;;24.38;15.30;;;32.00;99.90;;;;;;5014876;28;20057;-65
2023/01/05 09:08:14;;;;;;;36.28;20.98;;;32.00;99.90;;;;;;5014797;28;20104;-68
2023/01/05 09:10:40;;;;;;;35.63;20.65;;;32.00;99.90;;;;;;5014982;28;20033;-65
2023/01/05 09:13:07;;;;;;;31.20;19.40;;;31.90;99.90;;;;;;5014584;28;20026;-66
2023/01/05 09:15:34;;;;;;;28.83;10.77;;;31.90;99.90;;;;;;5011697;28;20030;-65
2023/01/05 09:18:04;;;;;;;14.50;7.10;;;31.60;99.90;;;;;;5000907;28;20434;-66
2023/01/05 09:20:30;;;;;;;14.88;7.65;;;31.10;99.90;;;;;;5004229;28;20108;-68
2023/01/05 09:22:57;;;;;;;23.48;8.57;;;30.80;99.90;;;;;;5004772;28;20041;-68
2023/01/05 09:25:23;;;;;;;13.57;7.30;;;30.60;99.90;;;;;;5004829;28;20482;-68
2023/01/05 09:27:50;;;;;;;10.77;7.05;;;30.30;99.90;;;;;;5004450;28;20030;-66
2023/01/05 09:30:16;;;;;;;17.27;9.50;;;30.10;99.90;;;;;;5002774;28;20026;-67
2023/01/05 09:32:43;;;;;;;25.35;15.50;;;30.00;99.90;;;;;;5004237;28;20029;-67
2023/01/05 09:35:09;;;;;;;43.00;20.98;;;29.90;99.90;;;;;;5004588;28;20019;-68
2023/01/05 09:37:36;;;;;;;29.70;15.43;;;29.90;99.90;;;;;;5002573;28;20072;-68
2023/01/05 09:40:02;;;;;;;17.88;10.23;;;29.80;99.90;;;;;;5003890;28;20027;-68
2023/01/05 09:42:33;;;;;;;15.65;10.38;;;29.80;99.90;;;;;;5003979;28;20092;-67
2023/01/05 09:45:05;;;;;;;30.17;17.77;;;29.70;99.90;;;;;;5000257;28;20038;-68
2023/01/05 09:47:37;;;;;;;25.98;15.02;;;29.80;99.90;;;;;;5000388;28;20027;-67
2023/01/05 09:50:11;;;;;;;23.00;12.80;;;29.70;99.90;;;;;;5004295;28;20021;-68
2023/01/05 09:52:38;;;;;;;22.90;11.38;;;29.70;99.90;;;;;;4999827;28;20149;-68
2023/01/05 09:55:15;;;;;;;22.67;13.10;;;29.70;99.90;;;;;;5003411;28;20164;-68
2023/01/05 09:58:03;;;;;;;29.65;14.77;;;29.80;99.90;;;;;;4975081;28;20030;-67
2023/01/05 10:00:30;;;;;;;25.17;15.57;;;29.80;99.90;;;;;;4934608;29;20042;-66
2023/01/05 10:03:08;;;;;;;31.83;16.33;;;29.70;99.90;;;;;;4934814;29;20040;-66
2023/01/05 10:05:40;;;;;;;25.95;16.42;;;29.70;99.90;;;;;;4934820;29;20100;-66
2023/01/05 10:08:26;;;;;;;19.45;10.65;;;29.70;99.90;;;;;;4934652;29;20051;-66
2023/01/05 10:13:46;;;;;;;22.63;13.65;;;29.70;99.90;;;;;;4949697;28;20326;-67
2023/01/05 10:16:16;;;;;;;24.77;13.38;;;29.70;99.90;;;;;;4952011;29;20114;-67
2023/01/05 10:18:44;;;;;;;29.40;17.27;;;29.70;99.90;;;;;;4952422;29;20043;-67
2023/01/05 10:21:21;;;;;;;58.55;37.10;;;29.60;99.90;;;;;;4952160;29;20117;-67
2023/01/05 10:23:57;;;;;;;91.70;56.15;;;29.50;99.90;;;;;;4952234;28;20136;-65
2023/01/05 10:26:26;;;;;;;79.57;43.63;;;29.30;99.90;;;;;;4950992;29;20083;-67
2023/01/05 10:29:12;;;;;;;48.35;28.27;;;29.20;99.90;;;;;;4952259;29;20074;-68
2023/01/05 10:32:13;;;;;;;42.08;19.92;;;28.90;99.90;;;;;;4950457;29;20023;-69
2023/01/05 10:34:50;;;;;;;29.50;16.30;;;28.70;99.90;;;;;;4952465;29;20103;-69
2023/01/05 10:37:34;;;;;;;29.58;15.35;;;28.50;99.90;;;;;;4951278;28;20043;-66
2023/01/05 10:40:23;;;;;;;42.42;18.02;;;28.50;99.90;;;;;;4953128;29;20031;-66
2023/01/05 10:43:13;;;;;;;50.22;24.25;;;28.50;99.90;;;;;;4915188;29;20095;-70
2023/01/05 10:45:40;;;;;;;60.35;23.10;;;28.70;99.90;;;;;;4914929;29;20393;-68
2023/01/05 10:48:20;;;;;;;69.93;26.27;;;28.60;99.90;;;;;;4915398;29;20413;-68
2023/01/05 10:50:48;;;;;;;58.85;25.70;;;28.60;99.90;;;;;;4921561;29;20444;-68
2023/01/05 10:53:19;;;;;;;51.65;25.08;;;28.70;99.90;;;;;;4921681;29;20119;-68
2023/01/05 10:55:51;;;;;;;60.25;35.05;;;28.70;99.90;;;;;;4916084;28;20124;-68
2023/01/05 10:58:31;;;;;;;73.50;40.85;;;28.90;99.90;;;;;;4981387;28;20038;-67
2023/01/05 11:01:04;;;;;;;88.75;54.30;;;28.80;99.90;;;;;;4980107;28;20030;-68
2023/01/05 11:03:38;;;;;;;121.80;80.40;;;28.70;99.90;;;;;;4977735;28;20019;-67
2023/01/05 11:06:05;;;;;;;120.97;75.15;;;28.70;99.90;;;;;;4975125;28;20058;-69
2023/01/05 11:08:32;;;;;;;128.52;85.05;;;28.80;99.90;;;;;;4972375;28;20472;-69
2023/01/05 11:11:03;;;;;;;92.38;56.55;;;28.90;99.90;;;;;;4972293;28;20058;-66
2023/01/05 11:13:32;;;;;;;93.50;60.65;;;28.90;99.90;;;;;;4975063;28;20038;-68
2023/01/05 11:16:08;;;;;;;85.57;45.22;;;28.80;99.90;;;;;;4981420;28;20031;-69
2023/01/05 11:18:47;;;;;;;76.95;46.58;;;28.90;99.90;;;;;;4978572;28;20026;-70
2023/01/05 11:21:35;;;;;;;49.08;32.75;;;28.80;99.90;;;;;;4993649;28;20023;-69
2023/01/05 11:24:03;;;;;;;36.60;22.95;;;28.90;99.90;;;;;;4972160;28;20043;-69
2023/01/05 11:26:48;;;;;;;37.72;20.90;;;28.90;99.90;;;;;;4970128;28;20067;-69
2023/01/05 11:29:16;;;;;;;43.15;25.17;;;28.80;99.90;;;;;;4968858;28;20055;-69
2023/01/05 11:31:42;;;;;;;145.55;102.78;;;28.80;99.90;;;;;;4975915;28;20039;-69
2023/01/05 11:34:39;;;;;;;84.22;50.83;;;28.90;99.90;;;;;;4975553;28;20027;-69
2023/01/05 11:37:28;;;;;;;68.70;42.72;;;28.90;99.90;;;;;;4937747;29;20500;-67
2023/01/05 11:39:55;;;;;;;85.78;52.70;;;28.80;99.90;;;;;;4899904;29;20084;-69
2023/01/05 11:42:23;;;;;;;93.97;61.60;;;28.90;99.90;;;;;;4899521;29;20052;-69
2023/01/05 11:44:51;;;;;;;119.07;72.22;;;28.80;99.90;;;;;;4899936;29;20111;-68
2023/01/05 11:47:24;;;;;;;99.00;56.10;;;28.80;99.90;;;;;;4899787;29;20454;-68
2023/01/05 11:50:00;;;;;;;87.90;48.88;;;28.80;99.90;;;;;;4899467;29;20028;-68
2023/01/05 11:52:38;;;;;;;148.35;91.25;;;29.00;99.90;;;;;;4899397;29;20036;-68
2023/01/05 11:55:29;;;;;;;75.43;48.00;;;28.80;99.90;;;;;;4886285;29;20440;-67
2023/01/05 11:58:10;;;;;;;71.25;44.20;;;28.70;99.90;;;;;;4880319;29;20029;-68
2023/01/05 12:01:13;;;;;;;63.38;33.72;;;28.70;99.90;;;;;;4880455;29;20533;-66
2023/01/05 12:04:00;;;;;;;49.70;28.13;;;28.80;99.90;;;;;;4880401;29;20349;-66
2023/01/05 12:06:43;;;;;;;52.50;31.77;;;28.80;99.90;;;;;;4880051;29;20057;-65
2023/01/05 12:09:20;;;;;;;50.33;28.95;;;28.50;99.90;;;;;;4878809;29;20050;-66
2023/01/05 12:11:54;;;;;;;47.45;26.35;;;28.50;99.90;;;;;;4907127;29;20032;-67
2023/01/05 12:14:23;;;;;;;43.03;26.45;;;28.40;99.90;;;;;;4944473;28;20046;-66
2023/01/05 12:16:55;;;;;;;51.50;27.30;;;28.50;99.90;;;;;;4997009;28;20030;-69
2023/01/05 12:19:46;;;;;;;45.20;24.75;;;28.50;99.90;;;;;;4996529;28;20045;-67
2023/01/05 12:22:30;;;;;;;77.05;35.88;;;28.70;99.90;;;;;;4996442;28;20395;-68
2023/01/05 12:25:04;;;;;;;106.68;48.25;;;28.50;99.90;;;;;;4996471;28;20034;-68
2023/01/05 12:27:42;;;;;;;125.72;57.03;;;28.60;99.90;;;;;;4996524;28;20472;-69
2023/01/05 12:30:27;;;;;;;126.35;56.53;;;28.40;99.90;;;;;;4996291;28;20022;-66
2023/01/05 12:32:53;;;;;;;124.90;54.83;;;28.40;99.90;;;;;;4996437;28;20053;-66
2023/01/05 12:35:48;;;;;;;129.07;60.03;;;28.40;99.90;;;;;;4996396;28;20025;-65
2023/01/05 12:38:17;;;;;;;113.35;58.33;;;28.50;99.90;;;;;;4989289;28;20029;-65
2023/01/05 12:40:53;;;;;;;91.85;43.95;;;28.50;99.90;;;;;;4984215;28;20027;-65
2023/01/05 12:43:40;;;;;;;79.15;38.63;;;28.40;99.90;;;;;;4976960;28;20113;-66
2023/01/05 12:46:14;;;;;;;71.93;38.22;;;28.40;99.90;;;;;;4977029;28;20027;-65
2023/01/05 12:48:49;;;;;;;67.55;35.30;;;28.40;99.90;;;;;;4982335;28;20038;-63
2023/01/05 12:51:21;;;;;;;70.88;38.65;;;28.40;99.90;;;;;;4996593;28;20145;-67
2023/01/05 12:53:56;;;;;;;73.40;37.53;;;28.40;99.90;;;;;;4996525;28;20033;-65
2023/01/05 12:56:26;;;;;;;66.22;35.30;;;28.30;99.90;;;;;;4986921;28;20014;-65
2023/01/05 12:59:12;;;;;;;67.75;34.85;;;28.40;99.90;;;;;;4976848;28;20027;-65
2023/01/05 13:01:49;;;;;;;78.85;35.88;;;28.40;99.90;;;;;;4975828;28;20502;-64
2023/01/05 13:04:29;;;;;;;79.15;42.75;;;28.60;99.90;;;;;;4976656;28;20070;-66
2023/01/05 13:06:58;;;;;;;82.20;41.40;;;28.50;99.90;;;;;;4976393;28;20477;-66
2023/01/05 13:09:30;;;;;;;77.68;42.58;;;28.40;99.90;;;;;;4976495;28;20587;-65
2023/01/05 13:12:06;;;;;;;73.68;44.40;;;28.40;99.90;;;;;;4976453;28;20038;-65
2023/01/05 13:14:37;;;;;;;78.60;45.40;;;28.50;99.90;;;;;;4980365;28;20023;-65
2023/01/05 13:17:13;;;;;;;67.40;37.58;;;28.30;99.90;;;;;;4982473;28;20089;-64